Time,TemperatureF,DewpointF,PressureIn,WindDirection,WindDirectionDegrees,WindSpeedMPH,WindSpeedGustMPH,Humidity,HourlyPrecipIn,Conditions,Clouds,dailyrainin,SoftwareType,DateUTC
2013-04-07 00:22:00,46.0,12.0,29.87,West,270,3.0,5.0,25,0.00,,,-99.99,,2013-04-07 07:22:00,
2013-04-07 00:32:00,46.0,12.0,29.87,West,270,3.0,5.0,25,0.00,,,-99.99,,2013-04-07 07:32:00,
2013-04-07 00:42:00,46.0,12.0,29.87,West,270,3.0,5.0,25,0.00,,,-99.99,,2013-04-07 07:42:00,
2013-04-07 01:22:00,46.0,17.0,29.87,SSW,210,3.0,6.0,31,0.00,,,-99.99,,2013-04-07 08:22:00,
2013-04-07 01:32:00,46.0,17.0,29.87,SSW,210,3.0,6.0,31,0.00,,,-99.99,,2013-04-07 08:32:00,
2013-04-07 01:42:00,46.0,17.0,29.87,SSW,210,3.0,6.0,31,0.00,,,-99.99,,2013-04-07 08:42:00,
2013-04-07 02:22:00,45.0,20.0,29.83,North,0,0.0,4.0,37,0.00,,,-99.99,,2013-04-07 09:22:00,
2013-04-07 02:33:00,45.0,20.0,29.83,North,0,0.0,4.0,37,0.00,,,-99.99,,2013-04-07 09:33:00,
2013-04-07 02:43:00,45.0,20.0,29.83,North,0,0.0,4.0,37,0.00,,,-99.99,,2013-04-07 09:43:00,
2013-04-07 03:22:00,44.0,21.0,29.81,SW,220,2.0,6.0,39,0.00,,,-99.99,,2013-04-07 10:22:00,
2013-04-07 03:33:00,44.0,21.0,29.81,SW,220,2.0,6.0,39,0.00,,,-99.99,,2013-04-07 10:33:00,
2013-04-07 03:42:00,44.0,21.0,29.81,SW,220,2.0,6.0,39,0.00,,,-99.99,,2013-04-07 10:42:00,
2013-04-07 04:22:00,42.0,23.0,29.80,WSW,250,3.0,4.0,46,0.00,,,-99.99,,2013-04-07 11:22:00,
2013-04-07 04:32:00,42.0,23.0,29.80,WSW,250,3.0,4.0,46,0.00,,,-99.99,,2013-04-07 11:32:00,
2013-04-07 04:42:00,42.0,23.0,29.80,WSW,250,3.0,4.0,46,0.00,,,-99.99,,2013-04-07 11:42:00,
2013-04-07 05:22:00,42.0,25.0,29.79,SW,220,2.0,3.0,50,0.00,,,-99.99,,2013-04-07 12:22:00,
2013-04-07 05:33:00,42.0,25.0,29.79,SW,220,2.0,3.0,50,0.00,,,-99.99,,2013-04-07 12:33:00,
2013-04-07 06:22:00,40.0,24.0,29.80,SW,230,2.0,3.0,52,0.00,,,-99.99,,2013-04-07 13:22:00,
2013-04-07 06:32:00,40.0,24.0,29.80,SW,230,2.0,3.0,52,0.00,,,-99.99,,2013-04-07 13:32:00,
2013-04-07 06:42:00,40.0,24.0,29.80,SW,230,2.0,3.0,52,0.00,,,-99.99,,2013-04-07 13:42:00,
2013-04-07 07:23:00,40.0,21.0,29.80,SW,230,2.0,2.0,47,0.00,,,-99.99,,2013-04-07 14:23:00,
2013-04-07 07:32:00,40.0,21.0,29.80,SW,230,2.0,2.0,47,0.00,,,-99.99,,2013-04-07 14:32:00,
2013-04-07 09:24:00,51.0,28.0,29.82,ENE,60,1.0,3.0,41,0.00,,,-99.99,,2013-04-07 16:24:00,
2013-04-07 09:33:00,51.0,28.0,29.82,ENE,60,1.0,3.0,41,0.00,,,-99.99,,2013-04-07 16:33:00,
2013-04-07 09:42:00,51.0,28.0,29.82,ENE,60,1.0,3.0,41,0.00,,,-99.99,,2013-04-07 16:42:00,
2013-04-07 10:23:00,54.0,28.0,29.82,NE,50,1.0,4.0,36,0.00,,,-99.99,,2013-04-07 17:23:00,
2013-04-07 10:32:00,54.0,28.0,29.82,NE,50,1.0,4.0,36,0.00,,,-99.99,,2013-04-07 17:32:00,
2013-04-07 10:42:00,54.0,28.0,29.82,NE,50,1.0,4.0,36,0.00,,,-99.99,,2013-04-07 17:42:00,
2013-04-07 11:22:00,58.0,27.0,29.82,NNE,30,3.0,5.0,30,0.00,,,-99.99,,2013-04-07 18:22:00,
2013-04-07 11:32:00,58.0,27.0,29.82,NNE,30,3.0,5.0,30,0.00,,,-99.99,,2013-04-07 18:32:00,
2013-04-07 11:42:00,58.0,27.0,29.82,NNE,30,3.0,5.0,30,0.00,,,-99.99,,2013-04-07 18:42:00,
2013-04-07 12:22:00,61.0,24.0,29.81,ENE,60,2.0,5.0,24,0.00,,,-99.99,,2013-04-07 19:22:00,
2013-04-07 12:32:00,61.0,24.0,29.81,ENE,60,2.0,5.0,24,0.00,,,-99.99,,2013-04-07 19:32:00,
2013-04-07 12:42:00,61.0,24.0,29.81,ENE,60,2.0,5.0,24,0.00,,,-99.99,,2013-04-07 19:42:00,
2013-04-07 13:22:00,56.0,30.0,29.80,NE,40,3.0,9.0,37,0.00,,,-99.99,,2013-04-07 20:22:00,
2013-04-07 13:32:00,56.0,30.0,29.80,NE,40,3.0,9.0,37,0.00,,,-99.99,,2013-04-07 20:32:00,
2013-04-07 13:43:00,56.0,30.0,29.80,NE,40,3.0,9.0,37,0.00,,,-99.99,,2013-04-07 20:43:00,
2013-04-07 14:22:00,59.0,30.0,29.79,NE,40,2.0,6.0,33,0.00,,,-99.99,,2013-04-07 21:22:00,
2013-04-07 14:33:00,59.0,30.0,29.79,NE,40,2.0,6.0,33,0.00,,,-99.99,,2013-04-07 21:33:00,
2013-04-07 14:43:00,59.0,30.0,29.79,NE,40,2.0,6.0,33,0.00,,,-99.99,,2013-04-07 21:43:00,
2013-04-07 15:23:00,60.0,28.0,29.77,WSW,240,1.0,7.0,29,0.00,,,-99.99,,2013-04-07 22:23:00,
2013-04-07 15:33:00,60.0,28.0,29.77,WSW,240,1.0,7.0,29,0.00,,,-99.99,,2013-04-07 22:33:00,
2013-04-07 15:43:00,60.0,28.0,29.77,WSW,240,1.0,7.0,29,0.00,,,-99.99,,2013-04-07 22:43:00,
2013-04-07 16:22:00,64.0,31.0,29.75,NE,50,2.0,3.0,29,0.00,,,-99.99,,2013-04-07 23:22:00,
2013-04-07 16:32:00,64.0,31.0,29.75,NE,50,2.0,3.0,29,0.00,,,-99.99,,2013-04-07 23:32:00,
2013-04-07 16:42:00,64.0,31.0,29.75,NE,50,2.0,3.0,29,0.00,,,-99.99,,2013-04-07 23:42:00,
2013-04-07 17:22:00,61.0,33.0,29.73,SW,230,1.0,5.0,35,0.00,,,-99.99,,2013-04-08 00:22:00,
2013-04-07 17:32:00,61.0,33.0,29.73,SW,230,1.0,5.0,35,0.00,,,-99.99,,2013-04-08 00:32:00,
2013-04-07 17:42:00,61.0,33.0,29.73,SW,230,1.0,5.0,35,0.00,,,-99.99,,2013-04-08 00:42:00,
2013-04-07 18:22:00,59.0,34.0,29.70,North,0,0.0,5.0,39,0.00,,,-99.99,,2013-04-08 01:22:00,
2013-04-07 18:33:00,59.0,34.0,29.70,North,0,0.0,5.0,39,0.00,,,-99.99,,2013-04-08 01:33:00,
2013-04-07 18:43:00,59.0,34.0,29.70,North,0,0.0,5.0,39,0.00,,,-99.99,,2013-04-08 01:43:00,
2013-04-07 18:45:00,52.0,36.0,29.70,WSW,240,1.0,5.0,55,0.00,,,-99.99,,2013-04-08 01:45:00,
2013-04-07 19:22:00,52.0,36.0,29.70,WSW,240,1.0,5.0,55,0.00,,,-99.99,,2013-04-08 02:22:00,
2013-04-07 19:33:00,52.0,36.0,29.70,WSW,240,1.0,5.0,55,0.00,,,-99.99,,2013-04-08 02:33:00,
2013-04-07 19:45:00,48.0,31.0,29.68,WSW,250,1.0,3.0,51,0.00,,,-99.99,,2013-04-08 02:45:00,
2013-04-07 20:23:00,48.0,31.0,29.68,WSW,250,1.0,3.0,51,0.00,,,-99.99,,2013-04-08 03:23:00,
2013-04-07 20:33:00,48.0,31.0,29.68,WSW,250,1.0,3.0,51,0.00,,,-99.99,,2013-04-08 03:33:00,
2013-04-07 21:23:00,45.0,25.0,29.70,West,270,1.0,4.0,45,0.00,,,-99.99,,2013-04-08 04:23:00,
2013-04-07 21:33:00,45.0,25.0,29.70,West,270,1.0,4.0,45,0.00,,,-99.99,,2013-04-08 04:33:00,
2013-04-07 21:43:00,45.0,25.0,29.70,West,270,1.0,4.0,45,0.00,,,-99.99,,2013-04-08 04:43:00,
2013-04-07 22:32:00,44.0,23.0,29.68,North,0,0.0,2.0,43,0.00,,,-99.99,,2013-04-08 05:32:00,
2013-04-07 22:42:00,44.0,23.0,29.68,North,0,0.0,2.0,43,0.00,,,-99.99,,2013-04-08 05:42:00,
2013-04-07 23:22:00,44.0,29.0,29.66,WSW,240,1.0,6.0,56,0.00,,,-99.99,,2013-04-08 06:22:00,
2013-04-07 23:32:00,44.0,29.0,29.66,WSW,240,1.0,6.0,56,0.00,,,-99.99,,2013-04-08 06:32:00,
2013-04-07 23:42:00,44.0,29.0,29.66,WSW,240,1.0,6.0,56,0.00,,,-99.99,,2013-04-08 06:42:00,